createdAt,value
2016-03-31T00:00:59.538Z,0
2016-03-31T00:01:59.525Z,0
2016-03-31T00:02:59.371Z,0
2016-03-31T00:03:59.531Z,0
2016-03-31T00:04:59.549Z,0
2016-03-31T00:05:59.551Z,0
2016-03-31T00:06:59.522Z,0
2016-03-31T00:07:59.525Z,0
2016-03-31T00:08:59.528Z,0
2016-03-31T00:09:59.531Z,0
2016-03-31T00:10:59.517Z,0
2016-03-31T00:11:59.520Z,0
2016-03-31T00:12:59.539Z,0
2016-03-31T00:13:59.542Z,0
2016-03-31T00:14:59.545Z,0
2016-03-31T00:15:59.516Z,0
2016-03-31T00:16:59.533Z,0
2016-03-31T00:17:59.521Z,0
2016-03-31T00:18:59.522Z,0
2016-03-31T00:19:59.550Z,0
2016-03-31T00:20:59.538Z,0
2016-03-31T00:21:59.540Z,0
2016-03-31T00:22:59.542Z,0
2016-03-31T00:23:59.530Z,0
2016-03-31T00:24:59.548Z,0
2016-03-31T00:25:59.535Z,0
2016-03-31T00:26:59.522Z,0
2016-03-31T00:27:59.540Z,0
2016-03-31T00:28:59.543Z,0
2016-03-31T00:29:59.530Z,0
2016-03-31T00:30:59.381Z,0
2016-03-31T00:31:59.588Z,0
2016-03-31T00:32:59.531Z,0
2016-03-31T00:33:59.533Z,0
2016-03-31T00:34:59.536Z,0
2016-03-31T00:35:59.539Z,0
2016-03-31T00:36:59.557Z,0
2016-03-31T00:37:59.528Z,0
2016-03-31T00:38:59.530Z,0
2016-03-31T00:39:59.534Z,0
2016-03-31T00:40:59.536Z,0
2016-03-31T00:41:59.539Z,0
2016-03-31T00:42:59.542Z,0
2016-03-31T00:43:59.575Z,0
2016-03-31T00:44:59.547Z,0
2016-03-31T00:45:59.519Z,0
2016-03-31T00:46:59.536Z,0
2016-03-31T00:47:59.524Z,0
2016-03-31T00:48:59.527Z,0
2016-03-31T00:49:59.560Z,0
2016-03-31T00:50:59.533Z,0
2016-03-31T00:51:59.535Z,0
2016-03-31T00:52:59.522Z,0
2016-03-31T00:53:59.383Z,0
2016-03-31T00:54:59.543Z,0
2016-03-31T00:55:59.545Z,0
2016-03-31T00:56:59.579Z,0
2016-03-31T00:57:59.535Z,0
2016-03-31T00:58:59.538Z,0
2016-03-31T00:59:59.540Z,0
2016-03-31T01:00:59.543Z,0
2016-03-31T01:01:59.546Z,0
2016-03-31T01:02:59.548Z,0
2016-03-31T01:03:59.567Z,0
2016-03-31T01:04:59.538Z,0
2016-03-31T01:05:59.556Z,0
2016-03-31T01:06:59.528Z,0
2016-03-31T01:07:59.531Z,0
2016-03-31T01:08:59.548Z,0
2016-03-31T01:09:59.537Z,0
2016-03-31T01:10:59.539Z,0
2016-03-31T01:11:59.526Z,0
2016-03-31T01:12:59.544Z,0
2016-03-31T01:13:59.547Z,0
2016-03-31T01:14:59.534Z,0
2016-03-31T01:15:59.536Z,0
2016-03-31T01:16:59.555Z,0
2016-03-31T01:17:59.527Z,0
2016-03-31T01:18:59.560Z,0
2016-03-31T01:19:59.547Z,0
2016-03-31T01:20:59.580Z,0
2016-03-31T01:21:59.537Z,0
2016-03-31T01:22:59.586Z,0
2016-03-31T01:23:59.527Z,0
2016-03-31T01:24:59.576Z,0
2016-03-31T01:25:59.563Z,0
2016-03-31T01:26:59.581Z,0
2016-03-31T01:27:59.537Z,0
2016-03-31T01:28:59.571Z,0
2016-03-31T01:29:59.542Z,0
2016-03-31T01:30:59.561Z,0
2016-03-31T01:31:59.548Z,0
2016-03-31T01:32:59.535Z,0
2016-03-31T01:33:59.553Z,0
2016-03-31T01:34:59.572Z,0
2016-03-31T01:35:59.559Z,0
2016-03-31T01:36:59.545Z,0
2016-03-31T01:37:59.580Z,0
2016-03-31T01:38:59.552Z,0
2016-03-31T01:39:59.570Z,0
2016-03-31T01:40:59.541Z,0
2016-03-31T01:41:59.529Z,0
2016-03-31T01:42:59.547Z,0
2016-03-31T01:43:59.565Z,0
2016-03-31T01:44:59.552Z,0
2016-03-31T01:45:59.570Z,0
2016-03-31T01:46:59.542Z,0
2016-03-31T01:47:59.544Z,0
2016-03-31T01:48:59.547Z,0
2016-03-31T01:49:59.566Z,0
2016-03-31T01:50:59.552Z,0
2016-03-31T01:51:59.539Z,0
2016-03-31T01:52:59.542Z,0
2016-03-31T01:53:59.560Z,0
2016-03-31T01:54:59.547Z,0
2016-03-31T01:55:59.550Z,0
2016-03-31T01:56:59.552Z,0
2016-03-31T01:57:59.540Z,0
2016-03-31T01:58:59.543Z,0
2016-03-31T01:59:59.546Z,0
2016-03-31T02:00:59.548Z,0
2016-03-31T02:01:59.566Z,0
2016-03-31T02:02:59.554Z,0
2016-03-31T02:03:59.556Z,0
2016-03-31T02:04:59.559Z,0
2016-03-31T02:05:59.624Z,0
2016-03-31T02:06:59.548Z,0
2016-03-31T02:07:59.544Z,0
2016-03-31T02:08:59.563Z,0
2016-03-31T02:09:59.549Z,0
2016-03-31T02:10:59.538Z,0
2016-03-31T02:11:59.540Z,0
2016-03-31T02:12:59.543Z,0
2016-03-31T02:13:59.545Z,0
2016-03-31T02:14:59.548Z,0
2016-03-31T02:15:59.550Z,0
2016-03-31T02:16:59.553Z,0
2016-03-31T02:17:59.543Z,0
2016-03-31T02:18:59.546Z,0
2016-03-31T02:19:59.549Z,0
2016-03-31T02:20:59.567Z,0
2016-03-31T02:21:59.554Z,0
2016-03-31T02:22:59.556Z,0
2016-03-31T02:23:59.543Z,0
2016-03-31T02:24:59.561Z,0
2016-03-31T02:25:59.548Z,0
2016-03-31T02:26:59.551Z,0
2016-03-31T02:27:59.569Z,0
2016-03-31T02:28:59.400Z,0
2016-03-31T02:29:59.544Z,0
2016-03-31T02:30:59.546Z,0
2016-03-31T02:31:59.549Z,0
2016-03-31T02:32:59.552Z,0
2016-03-31T02:33:59.555Z,0
2016-03-31T02:34:59.557Z,0
2016-03-31T02:35:59.560Z,0
2016-03-31T02:36:59.547Z,0
2016-03-31T02:37:59.549Z,0
2016-03-31T02:38:59.552Z,0
2016-03-31T02:39:59.555Z,0
2016-03-31T02:40:59.526Z,0
2016-03-31T02:41:59.546Z,0
2016-03-31T02:42:59.548Z,0
2016-03-31T02:43:59.566Z,0
2016-03-31T02:44:59.553Z,0
2016-03-31T02:45:59.557Z,0
2016-03-31T02:46:59.559Z,0
2016-03-31T02:47:59.545Z,0
2016-03-31T02:48:59.548Z,0
2016-03-31T02:49:59.567Z,0
2016-03-31T02:50:59.553Z,0
2016-03-31T02:51:59.573Z,0
2016-03-31T02:52:59.543Z,0
2016-03-31T02:53:59.546Z,0
2016-03-31T02:54:59.548Z,0
2016-03-31T02:55:59.551Z,0
2016-03-31T02:56:59.586Z,0
2016-03-31T02:57:59.541Z,0
2016-03-31T02:58:59.575Z,0
2016-03-31T02:59:59.547Z,0
2016-03-31T03:00:59.580Z,0
2016-03-31T03:01:59.537Z,0
2016-03-31T03:02:59.539Z,0
2016-03-31T03:03:59.558Z,0
2016-03-31T03:04:59.607Z,0
2016-03-31T03:05:59.547Z,0
2016-03-31T03:06:59.566Z,0
2016-03-31T03:07:59.667Z,0
2016-03-31T03:08:59.566Z,0
2016-03-31T03:09:59.536Z,0
2016-03-31T03:10:59.572Z,0
2016-03-31T03:11:59.542Z,0
2016-03-31T03:12:59.530Z,0
2016-03-31T03:13:59.564Z,0
2016-03-31T03:14:59.519Z,0
2016-03-31T03:15:59.553Z,0
2016-03-31T03:16:59.525Z,0
2016-03-31T03:17:59.544Z,0
2016-03-31T03:18:59.530Z,0
2016-03-31T03:19:59.548Z,0
2016-03-31T03:20:59.536Z,0
2016-03-31T03:21:59.538Z,0
2016-03-31T03:22:59.557Z,0
2016-03-31T03:23:59.529Z,0
2016-03-31T03:24:59.531Z,0
2016-03-31T03:25:59.518Z,0
2016-03-31T03:26:59.551Z,0
2016-03-31T03:27:59.508Z,0
2016-03-31T03:28:59.542Z,0
2016-03-31T03:29:59.528Z,0
2016-03-31T03:30:59.563Z,0
2016-03-31T03:31:59.518Z,0
2016-03-31T03:32:59.537Z,0
2016-03-31T03:33:59.556Z,0
2016-03-31T03:34:59.542Z,0
2016-03-31T03:35:59.560Z,0
2016-03-31T03:36:59.516Z,0
2016-03-31T03:37:59.534Z,0
2016-03-31T03:38:59.521Z,0
2016-03-31T03:39:59.508Z,0
2016-03-31T03:40:59.542Z,0
2016-03-31T03:41:59.514Z,0
2016-03-31T03:42:59.547Z,0
2016-03-31T03:43:59.536Z,0
2016-03-31T03:44:59.538Z,0
2016-03-31T03:45:59.524Z,0
2016-03-31T03:46:59.544Z,0
2016-03-31T03:47:59.530Z,0
2016-03-31T03:48:59.533Z,0
2016-03-31T03:49:59.535Z,0
2016-03-31T03:50:59.522Z,0
2016-03-31T03:51:59.525Z,0
2016-03-31T03:52:59.528Z,0
2016-03-31T03:53:59.516Z,0
2016-03-31T03:54:59.533Z,0
2016-03-31T03:55:59.520Z,0
2016-03-31T03:56:59.524Z,0
2016-03-31T03:57:59.526Z,0
2016-03-31T03:58:59.529Z,0
2016-03-31T03:59:59.531Z,0
2016-03-31T04:00:59.518Z,0
2016-03-31T04:01:59.364Z,0
2016-03-31T04:02:59.773Z,0
2016-03-31T04:03:59.526Z,0
2016-03-31T04:04:59.529Z,0
2016-03-31T04:05:59.547Z,0
2016-03-31T04:06:59.519Z,0
2016-03-31T04:07:59.522Z,0
2016-03-31T04:08:59.524Z,0
2016-03-31T04:09:59.542Z,0
2016-03-31T04:10:59.530Z,0
2016-03-31T04:11:59.816Z,0
2016-03-31T04:13:00.822Z,0
2016-03-31T04:13:59.774Z,0
2016-03-31T04:14:59.863Z,0
2016-03-31T04:15:59.649Z,0
2016-03-31T04:16:59.496Z,0
2016-03-31T04:17:59.498Z,0
2016-03-31T04:18:59.502Z,0
2016-03-31T04:19:59.488Z,0
2016-03-31T04:20:59.506Z,0
2016-03-31T04:21:59.493Z,0
2016-03-31T04:22:59.496Z,0
2016-03-31T04:23:59.484Z,0
2016-03-31T04:24:59.517Z,0
2016-03-31T04:25:59.558Z,0
2016-03-31T04:26:59.612Z,0
2016-03-31T04:27:59.683Z,0
2016-03-31T04:28:59.723Z,0
2016-03-31T04:29:59.782Z,0
2016-03-31T04:30:59.772Z,0
2016-03-31T04:31:59.794Z,0
2016-03-31T04:32:59.831Z,0
2016-03-31T04:33:59.837Z,0
2016-03-31T04:34:59.839Z,4
2016-03-31T04:35:59.864Z,4
2016-03-31T04:36:59.873Z,0
2016-03-31T04:37:59.866Z,4
2016-03-31T04:38:59.907Z,4
2016-03-31T04:39:59.883Z,4
2016-03-31T04:40:59.873Z,8
2016-03-31T04:41:59.910Z,8
2016-03-31T04:42:59.883Z,8
2016-03-31T04:43:59.888Z,8
2016-03-31T04:44:59.877Z,12
2016-03-31T04:45:59.897Z,16
2016-03-31T04:46:59.900Z,16
2016-03-31T04:47:59.889Z,24
2016-03-31T04:48:59.876Z,24
2016-03-31T04:49:59.896Z,32
2016-03-31T04:50:59.915Z,32
2016-03-31T04:51:59.886Z,40
2016-03-31T04:52:59.921Z,48
2016-03-31T04:53:59.892Z,56
2016-03-31T04:54:59.911Z,60
2016-03-31T04:55:59.898Z,72
2016-03-31T04:56:59.933Z,80
2016-03-31T04:57:59.889Z,88
2016-03-31T04:58:59.922Z,100
2016-03-31T04:59:59.894Z,112
2016-03-31T05:00:59.928Z,124
2016-03-31T05:01:59.899Z,132
2016-03-31T05:02:59.950Z,144
2016-03-31T05:03:59.905Z,156
2016-03-31T05:04:59.908Z,172
2016-03-31T05:05:59.895Z,184
2016-03-31T05:06:59.883Z,196
2016-03-31T05:07:59.885Z,212
2016-03-31T05:08:59.903Z,232
2016-03-31T05:09:59.890Z,252
2016-03-31T05:10:59.752Z,272
2016-03-31T05:11:59.896Z,292
2016-03-31T05:12:59.898Z,320
2016-03-31T05:13:59.901Z,344
2016-03-31T05:14:59.904Z,372
2016-03-31T05:15:59.890Z,400
2016-03-31T05:16:59.894Z,424
2016-03-31T05:17:59.912Z,460
2016-03-31T05:18:59.882Z,492
2016-03-31T05:19:59.886Z,520
2016-03-31T05:20:59.888Z,548
2016-03-31T05:21:59.891Z,584
2016-03-31T05:22:59.893Z,616
2016-03-31T05:23:59.896Z,648
2016-03-31T05:24:59.915Z,684
2016-03-31T05:25:59.887Z,716
2016-03-31T05:26:59.890Z,752
2016-03-31T05:27:59.892Z,784
2016-03-31T05:28:59.909Z,816
2016-03-31T05:29:59.882Z,840
2016-03-31T05:30:59.884Z,872
2016-03-31T05:31:59.902Z,908
2016-03-31T05:32:59.889Z,952
2016-03-31T05:33:59.892Z,1004
2016-03-31T05:34:59.878Z,1060
2016-03-31T05:35:59.881Z,1132
2016-03-31T05:36:59.900Z,1204
2016-03-31T05:37:59.886Z,1256
2016-03-31T05:38:59.890Z,1304
2016-03-31T05:39:59.892Z,1352
2016-03-31T05:40:59.895Z,1392
2016-03-31T05:41:59.882Z,1440
2016-03-31T05:42:59.869Z,1496
2016-03-31T05:43:59.902Z,1556
2016-03-31T05:44:59.875Z,1632
2016-03-31T05:45:59.893Z,1740
2016-03-31T05:46:59.896Z,1812
2016-03-31T05:47:59.898Z,1960
2016-03-31T05:48:59.917Z,2156
2016-03-31T05:49:59.888Z,2408
2016-03-31T05:50:59.906Z,2764
2016-03-31T05:51:59.894Z,2936
2016-03-31T05:52:59.881Z,2960
2016-03-31T05:53:59.884Z,3100
2016-03-31T05:54:59.918Z,3456
2016-03-31T05:55:59.889Z,3808
2016-03-31T05:56:59.876Z,4656
2016-03-31T05:57:59.909Z,5812
2016-03-31T05:58:59.881Z,6184
2016-03-31T05:59:59.883Z,7712
2016-03-31T06:00:59.903Z,8016
2016-03-31T06:01:59.889Z,7568
2016-03-31T06:02:59.892Z,5932
2016-03-31T06:03:59.879Z,5132
2016-03-31T06:04:59.881Z,5500
2016-03-31T06:05:59.884Z,14248
2016-03-31T06:06:59.887Z,16192
2016-03-31T06:07:59.889Z,16256
2016-03-31T06:08:59.892Z,17088
2016-03-31T06:09:59.895Z,17184
2016-03-31T06:10:59.883Z,17856
2016-03-31T06:11:59.932Z,17376
2016-03-31T06:12:59.888Z,11708
2016-03-31T06:13:59.891Z,8532
2016-03-31T06:14:59.893Z,13408
2016-03-31T06:15:59.896Z,17760
2016-03-31T06:16:59.914Z,14496
2016-03-31T06:17:59.901Z,13172
2016-03-31T06:18:59.888Z,12776
2016-03-31T06:19:59.890Z,13876
2016-03-31T06:20:59.893Z,19456
2016-03-31T06:21:59.896Z,18784
2016-03-31T06:22:59.915Z,14280
2016-03-31T06:23:59.917Z,20640
2016-03-31T06:24:59.904Z,20800
2016-03-31T06:25:59.923Z,19968
2016-03-31T06:26:59.926Z,20480
2016-03-31T06:27:59.928Z,20672
2016-03-31T06:28:59.946Z,20960
2016-03-31T06:29:59.918Z,21536
2016-03-31T06:30:59.936Z,22016
2016-03-31T06:31:59.939Z,22528
2016-03-31T06:32:59.941Z,24032
2016-03-31T06:33:59.929Z,23712
2016-03-31T06:34:59.931Z,23680
2016-03-31T06:35:59.933Z,23776
2016-03-31T06:36:59.953Z,26624
2016-03-31T06:37:59.955Z,26848
2016-03-31T06:38:59.958Z,26528
2016-03-31T06:39:59.945Z,29792
2016-03-31T06:40:59.963Z,28864
2016-03-31T06:41:59.966Z,27456
2016-03-31T06:42:59.983Z,27840
2016-03-31T06:43:59.971Z,28672
2016-03-31T06:44:59.989Z,26976
2016-03-31T06:45:59.976Z,26400
2016-03-31T06:47:00.011Z,24128
2016-03-31T06:47:59.997Z,21440
2016-03-31T06:48:59.999Z,22368
2016-03-31T06:50:00.003Z,20608
2016-03-31T06:51:00.005Z,19776
2016-03-31T06:52:00.023Z,19712
2016-03-31T06:53:00.027Z,18592
2016-03-31T06:54:00.013Z,16320
2016-03-31T06:55:00.032Z,15148
2016-03-31T06:56:00.019Z,15596
2016-03-31T06:57:00.053Z,17472
2016-03-31T06:58:00.056Z,18816
2016-03-31T06:59:00.073Z,19552
2016-03-31T07:00:00.779Z,20896
2016-03-31T07:01:00.064Z,22304
2016-03-31T07:02:00.081Z,22592
2016-03-31T07:03:00.085Z,25632
2016-03-31T07:04:00.072Z,29120
2016-03-31T07:05:00.074Z,31104
2016-03-31T07:06:00.093Z,32800
2016-03-31T07:07:00.080Z,33664
2016-03-31T07:08:00.103Z,35552
2016-03-31T07:09:00.105Z,36160
2016-03-31T07:10:00.092Z,36224
2016-03-31T07:11:00.111Z,39104
2016-03-31T07:12:00.129Z,38624
2016-03-31T07:13:00.132Z,39968
2016-03-31T07:14:00.166Z,40384
2016-03-31T07:15:00.184Z,35200
2016-03-31T07:16:00.156Z,25632
2016-03-31T07:17:00.158Z,28416
2016-03-31T07:18:00.176Z,35104
2016-03-31T07:19:00.180Z,35488
2016-03-31T07:20:00.182Z,39104
2016-03-31T07:21:00.184Z,38176
2016-03-31T07:22:00.203Z,36800
2016-03-31T07:23:00.191Z,37152
2016-03-31T07:24:00.193Z,35200
2016-03-31T07:25:00.195Z,35040
2016-03-31T07:26:00.214Z,36320
2016-03-31T07:27:19.982Z,36672
2016-03-31T07:28:00.250Z,36320
2016-03-31T07:29:00.237Z,35008
2016-03-31T07:30:00.256Z,34784
2016-03-31T07:31:00.242Z,37120
2016-03-31T07:32:00.245Z,36896
2016-03-31T07:33:00.248Z,35712
2016-03-31T07:34:00.251Z,36288
2016-03-31T07:35:00.269Z,38048
2016-03-31T07:36:00.287Z,36224
2016-03-31T07:37:00.290Z,35136
2016-03-31T07:38:00.308Z,36096
2016-03-31T07:39:00.295Z,34624
2016-03-31T07:40:00.298Z,34464
2016-03-31T07:41:00.300Z,36224
2016-03-31T07:42:00.319Z,35904
2016-03-31T07:43:00.322Z,36320
2016-03-31T07:44:00.356Z,36032
2016-03-31T07:45:00.390Z,38816
2016-03-31T07:46:00.346Z,37248
2016-03-31T07:47:00.551Z,37184
2016-03-31T07:48:00.367Z,37248
2016-03-31T07:49:00.369Z,36256
2016-03-31T07:50:00.404Z,37344
2016-03-31T07:51:00.391Z,39040
2016-03-31T07:52:00.409Z,35648
2016-03-31T07:53:00.396Z,36448
2016-03-31T07:54:00.398Z,34816
2016-03-31T07:55:00.417Z,36448
2016-03-31T07:56:00.420Z,37440
2016-03-31T07:57:00.422Z,37376
2016-03-31T07:58:00.440Z,36672
2016-03-31T07:59:00.443Z,35968
2016-03-31T08:00:00.462Z,24384
2016-03-31T08:01:00.464Z,11568
2016-03-31T08:02:00.467Z,6672
2016-03-31T08:03:00.484Z,6532
2016-03-31T08:04:00.487Z,6340
2016-03-31T08:05:00.506Z,6244
2016-03-31T08:06:00.493Z,6176
2016-03-31T08:07:00.496Z,6096
2016-03-31T08:08:00.514Z,6036
2016-03-31T08:09:00.517Z,5936
2016-03-31T08:10:00.536Z,5820
2016-03-31T08:11:00.523Z,5732
2016-03-31T08:12:00.541Z,5672
2016-03-31T08:13:00.559Z,5640
2016-03-31T08:14:00.546Z,5616
2016-03-31T08:15:00.549Z,5572
2016-03-31T08:16:00.566Z,5456
2016-03-31T08:17:00.586Z,5364
2016-03-31T08:18:00.572Z,5300
2016-03-31T08:19:00.607Z,5240
2016-03-31T08:20:00.593Z,5192
2016-03-31T08:21:00.612Z,5144
2016-03-31T08:22:00.599Z,5104
2016-03-31T08:23:00.617Z,5052
2016-03-31T08:24:00.635Z,5012
2016-03-31T08:25:00.622Z,4968
2016-03-31T08:26:00.640Z,4932
2016-03-31T08:27:00.643Z,4896
2016-03-31T08:28:00.661Z,4860
2016-03-31T08:29:00.665Z,4816
2016-03-31T08:30:00.651Z,4780
2016-03-31T08:31:00.670Z,4740
2016-03-31T08:32:00.687Z,4700
2016-03-31T08:33:00.690Z,4664
2016-03-31T08:34:00.709Z,4624
2016-03-31T08:35:00.712Z,4588
2016-03-31T08:36:00.745Z,4552
2016-03-31T08:37:00.698Z,4512
2016-03-31T08:38:00.717Z,4476
2016-03-31T08:39:00.720Z,4448
2016-03-31T08:40:00.722Z,4416
2016-03-31T08:41:00.710Z,4264
2016-03-31T08:42:00.728Z,4352
2016-03-31T08:43:00.747Z,4320
2016-03-31T08:44:00.765Z,4284
2016-03-31T08:45:00.767Z,4264
2016-03-31T08:46:00.770Z,4240
2016-03-31T08:47:00.773Z,4216
2016-03-31T08:48:00.807Z,4188
2016-03-31T08:49:00.778Z,4168
2016-03-31T08:50:00.781Z,4136
2016-03-31T08:51:00.783Z,4112
2016-03-31T08:52:00.848Z,4092
2016-03-31T08:53:00.820Z,4068
2016-03-31T08:54:00.807Z,4044
2016-03-31T08:55:00.810Z,4024
2016-03-31T08:56:00.828Z,4012
2016-03-31T08:57:00.831Z,4004
2016-03-31T08:58:00.834Z,3984
2016-03-31T08:59:00.852Z,3968
2016-03-31T09:00:00.839Z,3948
2016-03-31T09:01:00.842Z,3928
2016-03-31T09:02:00.860Z,3920
2016-03-31T09:03:00.863Z,3912
2016-03-31T09:04:00.881Z,3876
2016-03-31T09:05:00.883Z,3852
2016-03-31T09:06:00.902Z,3828
2016-03-31T09:07:00.889Z,3808
2016-03-31T09:08:00.891Z,3792
2016-03-31T09:09:00.878Z,3776
2016-03-31T09:10:00.881Z,3760
2016-03-31T09:11:00.884Z,3744
2016-03-31T09:12:00.902Z,3668
2016-03-31T09:13:00.920Z,3696
2016-03-31T09:14:00.923Z,3672
2016-03-31T09:15:00.910Z,3644
2016-03-31T09:16:00.928Z,3612
2016-03-31T09:17:00.931Z,3580
2016-03-31T09:18:00.981Z,3540
2016-03-31T09:19:00.937Z,3504
2016-03-31T09:20:00.939Z,3472
2016-03-31T09:21:00.942Z,3448
2016-03-31T09:22:00.945Z,3424
2016-03-31T09:23:00.963Z,3404
2016-03-31T09:24:00.950Z,3380
2016-03-31T09:25:00.984Z,3376
2016-03-31T09:26:00.988Z,3372
2016-03-31T09:27:00.990Z,3368
2016-03-31T09:28:00.993Z,3360
2016-03-31T09:29:01.043Z,3352
2016-03-31T09:30:00.982Z,3340
2016-03-31T09:31:01.001Z,3336
2016-03-31T09:32:01.018Z,3324
2016-03-31T09:33:00.912Z,3308
2016-03-31T09:34:01.040Z,3296
2016-03-31T09:35:01.027Z,3296
2016-03-31T09:36:01.014Z,3288
2016-03-31T09:37:01.048Z,3288
2016-03-31T09:38:01.051Z,3292
2016-03-31T09:39:01.037Z,3316
2016-03-31T09:40:01.040Z,3304
2016-03-31T09:41:01.043Z,3296
2016-03-31T09:42:01.046Z,3296
2016-03-31T09:43:01.048Z,3288
2016-03-31T09:44:01.067Z,3276
2016-03-31T09:45:00.898Z,3272
2016-03-31T09:46:01.073Z,3256
2016-03-31T09:47:01.075Z,3244
2016-03-31T09:48:01.108Z,3240
2016-03-31T09:49:01.080Z,3236
2016-03-31T09:50:01.082Z,3236
2016-03-31T09:51:01.085Z,3232
2016-03-31T09:52:01.088Z,3224
2016-03-31T09:53:01.091Z,3220
2016-03-31T09:54:01.110Z,3224
2016-03-31T09:55:01.113Z,3220
2016-03-31T09:56:01.115Z,3228
2016-03-31T09:57:01.118Z,3232
2016-03-31T09:58:00.964Z,3228
2016-03-31T09:59:01.123Z,3232
2016-03-31T10:00:01.126Z,3244
2016-03-31T10:01:01.128Z,3244
2016-03-31T10:02:01.131Z,3252
2016-03-31T10:03:01.462Z,3260
2016-03-31T10:04:01.137Z,3264
2016-03-31T10:05:01.140Z,3264
2016-03-31T10:06:01.142Z,3264
2016-03-31T10:07:01.144Z,3280
2016-03-31T10:08:01.147Z,3176
2016-03-31T10:09:01.165Z,3476
2016-03-31T10:10:01.184Z,3392
2016-03-31T10:11:01.171Z,3416
2016-03-31T10:12:01.173Z,3384
2016-03-31T10:13:01.206Z,3348
2016-03-31T10:14:01.194Z,3056
2016-03-31T10:15:01.181Z,3324
2016-03-31T10:16:01.184Z,3420
2016-03-31T10:17:01.187Z,3304
2016-03-31T10:18:01.205Z,3556
2016-03-31T10:19:01.192Z,3992
2016-03-31T10:20:01.195Z,4248
2016-03-31T10:21:01.228Z,4152
2016-03-31T10:22:01.217Z,4132
2016-03-31T10:23:01.203Z,4100
2016-03-31T10:24:01.206Z,4096
2016-03-31T10:25:01.208Z,3804
2016-03-31T10:26:01.227Z,3668
2016-03-31T10:27:01.230Z,3756
2016-03-31T10:28:01.247Z,3812
2016-03-31T10:29:01.219Z,4064
2016-03-31T10:30:01.237Z,3940
2016-03-31T10:31:01.255Z,3808
2016-03-31T10:32:01.243Z,3676
2016-03-31T10:33:01.246Z,3576
2016-03-31T10:34:01.248Z,3540
2016-03-31T10:35:01.266Z,3472
2016-03-31T10:36:01.268Z,3296
2016-03-31T10:37:01.287Z,2996
2016-03-31T10:38:01.274Z,3288
2016-03-31T10:39:01.277Z,3100
2016-03-31T10:40:01.280Z,3684
2016-03-31T10:41:01.267Z,4408
2016-03-31T10:42:01.285Z,4952
2016-03-31T10:43:01.287Z,5024
2016-03-31T10:44:01.291Z,4712
2016-03-31T10:45:01.309Z,4440
2016-03-31T10:46:01.312Z,4032
2016-03-31T10:47:01.298Z,3652
2016-03-31T10:48:01.301Z,3340
2016-03-31T10:49:01.320Z,3284
2016-03-31T10:50:01.322Z,3484
2016-03-31T10:51:01.325Z,3536
2016-03-31T10:52:01.312Z,3524
2016-03-31T10:53:01.315Z,3464
2016-03-31T10:54:01.333Z,3436
2016-03-31T10:55:01.320Z,3368
2016-03-31T10:56:01.354Z,3372
2016-03-31T10:57:01.341Z,3364
2016-03-31T10:58:01.344Z,3360
2016-03-31T10:59:01.331Z,3372
2016-03-31T11:00:01.334Z,3312
2016-03-31T11:01:01.336Z,3264
2016-03-31T11:02:01.355Z,3252
2016-03-31T11:03:01.358Z,3260
2016-03-31T11:04:01.360Z,3248
2016-03-31T11:05:01.363Z,3236
2016-03-31T11:06:01.382Z,3112
2016-03-31T11:07:01.368Z,3164
2016-03-31T11:08:01.715Z,3272
2016-03-31T11:09:01.389Z,3236
2016-03-31T11:10:01.376Z,3244
2016-03-31T11:11:01.379Z,3108
2016-03-31T11:12:01.382Z,3152
2016-03-31T11:13:01.384Z,3108
2016-03-31T11:14:01.387Z,3356
2016-03-31T11:15:01.390Z,3480
2016-03-31T11:16:01.393Z,3944
2016-03-31T11:17:01.395Z,4096
2016-03-31T11:18:01.398Z,4140
2016-03-31T11:19:01.401Z,4156
2016-03-31T11:20:01.419Z,4072
2016-03-31T11:21:01.406Z,4016
2016-03-31T11:22:01.409Z,3824
2016-03-31T11:23:01.411Z,3844
2016-03-31T11:24:01.430Z,3856
2016-03-31T11:25:01.417Z,3952
2016-03-31T11:26:01.436Z,3912
2016-03-31T11:27:01.422Z,4164
2016-03-31T11:28:01.441Z,4076
2016-03-31T11:29:01.427Z,4232
2016-03-31T11:30:01.430Z,4448
2016-03-31T11:31:12.370Z,4720
2016-03-31T11:32:01.451Z,4948
2016-03-31T11:33:01.469Z,5124
2016-03-31T11:34:01.456Z,5124
2016-03-31T11:35:01.460Z,5300
2016-03-31T11:36:01.477Z,5828
2016-03-31T11:37:01.479Z,6148
2016-03-31T11:38:01.482Z,6408
2016-03-31T11:39:01.485Z,6392
2016-03-31T11:40:01.848Z,6300
2016-03-31T11:41:01.476Z,6316
2016-03-31T11:42:01.493Z,6388
2016-03-31T11:43:01.496Z,6388
2016-03-31T11:44:01.498Z,6260
2016-03-31T11:45:01.345Z,6204
2016-03-31T11:46:01.504Z,6240
2016-03-31T11:47:01.507Z,6356
2016-03-31T11:48:01.541Z,6444
2016-03-31T11:49:01.512Z,6388
2016-03-31T11:50:01.514Z,6112
2016-03-31T11:51:01.517Z,5740
2016-03-31T11:52:01.520Z,5348
2016-03-31T11:53:01.523Z,5116
2016-03-31T11:54:01.526Z,4876
2016-03-31T11:55:01.528Z,4780
2016-03-31T11:56:01.531Z,4668
2016-03-31T11:57:01.549Z,4692
2016-03-31T11:58:01.536Z,4676
2016-03-31T11:59:01.555Z,4660
2016-03-31T12:00:01.541Z,4604
2016-03-31T12:01:01.545Z,4572
2016-03-31T12:02:01.563Z,4288
2016-03-31T12:03:01.597Z,4388
2016-03-31T12:04:01.569Z,4384
2016-03-31T12:05:01.556Z,4468
2016-03-31T12:06:01.574Z,4496
2016-03-31T12:07:01.561Z,4656
2016-03-31T12:08:01.579Z,4848
2016-03-31T12:09:01.582Z,4996
2016-03-31T12:10:01.584Z,5140
2016-03-31T12:11:01.571Z,5260
2016-03-31T12:12:01.590Z,5308
2016-03-31T12:13:01.593Z,5200
2016-03-31T12:14:01.596Z,5104
2016-03-31T12:15:01.614Z,5224
2016-03-31T12:16:01.617Z,4940
2016-03-31T12:17:01.603Z,4908
2016-03-31T12:18:01.622Z,5124
2016-03-31T12:19:01.608Z,5004
2016-03-31T12:20:01.628Z,4980
2016-03-31T12:21:01.614Z,4988
2016-03-31T12:22:01.617Z,4968
2016-03-31T12:23:01.620Z,4920
2016-03-31T12:24:01.685Z,4728
2016-03-31T12:25:01.641Z,4664
2016-03-31T12:26:01.644Z,4668
2016-03-31T12:27:01.646Z,4768
2016-03-31T12:28:01.649Z,4988
2016-03-31T12:29:01.651Z,5208
2016-03-31T12:30:01.654Z,5476
2016-03-31T12:31:01.657Z,5740
2016-03-31T12:32:01.972Z,5964
2016-03-31T12:33:01.662Z,6124
2016-03-31T12:34:29.979Z,6348
2016-03-31T12:35:01.682Z,6400
2016-03-31T12:36:01.685Z,6508
2016-03-31T12:37:01.673Z,6544
2016-03-31T12:38:01.691Z,6596
2016-03-31T12:39:01.679Z,6576
2016-03-31T12:40:01.681Z,6600
2016-03-31T12:41:01.684Z,6728
2016-03-31T12:42:01.529Z,6764
2016-03-31T12:43:01.689Z,6840
2016-03-31T12:44:01.692Z,6988
2016-03-31T12:45:01.710Z,7168
2016-03-31T12:46:01.697Z,7288
2016-03-31T12:47:01.715Z,7352
2016-03-31T12:48:01.733Z,7364
2016-03-31T12:49:01.736Z,7304
2016-03-31T12:50:01.723Z,7224
2016-03-31T12:51:01.726Z,7220
2016-03-31T12:52:01.729Z,7232
2016-03-31T12:53:01.731Z,7280
2016-03-31T12:54:01.734Z,7296
2016-03-31T12:55:01.752Z,7236
2016-03-31T12:56:01.755Z,7108
2016-03-31T12:57:01.742Z,6992
2016-03-31T12:58:01.745Z,6916
2016-03-31T12:59:01.747Z,6868
2016-03-31T13:00:01.750Z,6852
2016-03-31T13:01:01.752Z,6880
2016-03-31T13:02:01.772Z,6964
2016-03-31T13:03:01.774Z,7040
2016-03-31T13:04:01.776Z,6996
2016-03-31T13:05:01.779Z,6944
2016-03-31T13:06:01.798Z,7004
2016-03-31T13:07:01.785Z,7144
2016-03-31T13:08:01.788Z,7284
2016-03-31T13:09:01.806Z,7304
2016-03-31T13:10:01.777Z,7288
2016-03-31T13:11:01.795Z,7260
2016-03-31T13:12:01.829Z,7308
2016-03-31T13:13:01.816Z,7296
2016-03-31T13:14:01.818Z,7192
2016-03-31T13:15:01.821Z,7076
2016-03-31T13:16:01.824Z,7116
2016-03-31T13:17:01.812Z,7044
2016-03-31T13:18:01.830Z,7000
2016-03-31T13:19:01.832Z,6968
2016-03-31T13:20:01.851Z,6932
2016-03-31T13:21:01.837Z,6984
2016-03-31T13:22:01.840Z,6948
2016-03-31T13:23:01.843Z,6836
2016-03-31T13:24:02.253Z,6664
2016-03-31T13:25:01.849Z,6504
2016-03-31T13:26:01.851Z,6272
2016-03-31T13:27:01.854Z,6012
2016-03-31T13:28:01.856Z,5788
2016-03-31T13:29:01.875Z,5616
2016-03-31T13:30:01.862Z,5524
2016-03-31T13:31:01.943Z,5476
2016-03-31T13:32:01.855Z,5468
2016-03-31T13:33:01.839Z,5424
2016-03-31T13:34:01.823Z,5348
2016-03-31T13:35:01.823Z,5292
2016-03-31T13:36:01.806Z,5384
2016-03-31T13:37:01.796Z,5520
2016-03-31T13:38:01.792Z,5592
2016-03-31T13:39:01.772Z,5700
2016-03-31T13:40:01.768Z,5744
2016-03-31T13:41:01.779Z,5744
2016-03-31T13:42:01.779Z,5848
2016-03-31T13:43:01.795Z,5824
2016-03-31T13:44:01.795Z,5676
2016-03-31T13:45:01.795Z,5760
2016-03-31T13:46:01.796Z,5836